Time;durP1;ratioP1;P1;durP2;ratioP2;P2;SDS_P1;SDS_P2;PMS_P1;PMS_P2;Temp;Humidity;BMP_temperature;BMP_pressure;BME280_temperature;BME280_humidity;BME280_pressure;Samples;Min_cycle;Max_cycle;Signal;HPM_P1;HPM_P2
2022/09/11 00:00:41;;;;;;;5.65;3.35;;;17.60;99.90;;;17.86;100.00;101037.00;5186456;28;20134;-73
2022/09/11 00:03:14;;;;;;;6.68;3.05;;;17.60;99.90;;;17.83;100.00;101043.13;5186244;28;20551;-73
2022/09/11 00:05:46;;;;;;;5.55;3.10;;;17.60;99.90;;;17.81;100.00;101034.34;5185972;28;20088;-72
2022/09/11 00:08:21;;;;;;;6.65;3.75;;;17.60;99.90;;;17.81;100.00;101038.75;5186299;28;20042;-72
2022/09/11 00:10:54;;;;;;;7.82;3.63;;;17.60;99.90;;;17.79;100.00;101030.78;5185663;28;20100;-72
2022/09/11 00:13:27;;;;;;;6.78;3.60;;;17.50;99.90;;;17.80;100.00;101032.59;5185965;28;20065;-72
2022/09/11 00:16:00;;;;;;;7.40;3.88;;;17.50;99.90;;;17.79;100.00;101036.06;5184372;28;20053;-72
2022/09/11 00:18:34;;;;;;;6.40;3.50;;;17.50;99.90;;;17.81;100.00;101033.47;5185800;28;20647;-72
2022/09/11 00:21:08;;;;;;;6.75;3.58;;;17.50;99.90;;;17.84;100.00;101036.09;5185736;28;20753;-75
2022/09/11 00:23:41;;;;;;;5.10;3.03;;;17.60;99.90;;;17.85;100.00;101037.88;5184780;28;20048;-73
2022/09/11 00:26:14;;;;;;;5.50;3.22;;;17.60;99.90;;;17.87;100.00;101030.88;5185480;28;20038;-73
2022/09/11 00:28:47;;;;;;;5.28;2.92;;;17.60;99.90;;;17.89;100.00;101026.50;5184496;28;20447;-72
2022/09/11 00:31:23;;;;;;;5.53;3.35;;;17.60;99.90;;;17.90;100.00;101026.50;5184127;28;20050;-72
2022/09/11 00:33:55;;;;;;;7.82;3.40;;;17.60;99.90;;;17.90;100.00;101029.13;5185375;28;20049;-74
2022/09/11 00:36:30;;;;;;;6.07;3.30;;;17.60;99.90;;;17.93;100.00;101038.84;5185428;28;20045;-73
2022/09/11 00:39:02;;;;;;;5.68;3.00;;;17.60;99.90;;;17.90;100.00;101029.13;5184052;28;20416;-72
2022/09/11 00:41:39;;;;;;;6.47;3.63;;;17.60;99.90;;;17.92;100.00;101037.06;5183969;28;20045;-72
2022/09/11 00:44:59;;;;;;;7.28;4.15;;;17.60;99.90;;;17.90;100.00;101038.81;5184286;28;20510;-73
2022/09/11 00:47:31;;;;;;;6.30;3.38;;;17.60;99.90;;;17.91;100.00;101035.28;5184952;28;20415;-72
2022/09/11 00:50:13;;;;;;;9.35;4.00;;;17.60;99.90;;;17.90;100.00;101044.97;5183676;28;20054;-73
2022/09/11 00:52:53;;;;;;;5.75;3.25;;;17.70;99.90;;;17.92;100.00;101039.69;5185276;28;20045;-74
2022/09/11 00:55:28;;;;;;;8.50;4.57;;;17.70;99.90;;;17.94;100.00;101045.00;5183972;28;20056;-72
2022/09/11 00:58:05;;;;;;;6.60;3.75;;;17.70;99.90;;;17.92;100.00;101044.97;5184723;28;20037;-72
2022/09/11 01:00:39;;;;;;;11.05;5.93;;;17.70;99.90;;;17.93;100.00;101052.03;5184612;28;20145;-74
2022/09/11 01:03:12;;;;;;;8.32;4.57;;;17.70;99.90;;;17.91;100.00;101059.03;5183914;28;20054;-74
2022/09/11 01:05:44;;;;;;;10.98;4.80;;;17.60;99.90;;;17.91;100.00;101051.13;5184750;28;20042;-73
2022/09/11 01:08:16;;;;;;;7.88;4.68;;;17.70;99.90;;;17.92;100.00;101057.28;5184963;28;20091;-73
2022/09/11 01:11:04;;;;;;;11.60;6.05;;;17.70;99.90;;;17.90;100.00;101059.91;5183264;28;20077;-73
2022/09/11 01:13:49;;;;;;;12.75;5.15;;;17.60;99.90;;;17.89;100.00;101058.13;5183795;28;20049;-73
2022/09/11 01:16:30;;;;;;;7.60;4.30;;;17.60;99.90;;;17.89;100.00;101053.75;5184625;28;20074;-73
2022/09/11 01:19:18;;;;;;;8.82;4.30;;;17.60;99.90;;;17.90;100.00;101062.53;5183608;28;20050;-72
2022/09/11 01:22:16;;;;;;;8.52;3.85;;;17.60;99.90;;;17.90;100.00;101060.78;5184788;28;20041;-73
2022/09/11 01:25:11;;;;;;;7.65;4.10;;;17.70;99.90;;;17.90;100.00;101059.91;5184661;28;20050;-72
2022/09/11 01:27:49;;;;;;;7.03;3.80;;;17.70;99.90;;;17.89;100.00;101064.28;5183002;28;20247;-74
2022/09/11 01:30:24;;;;;;;8.18;4.72;;;17.70;99.90;;;17.88;100.00;101067.81;5183283;28;20046;-73
2022/09/11 01:33:12;;;;;;;9.60;5.35;;;17.60;99.90;;;17.86;100.00;101064.25;5183536;28;20691;-74
2022/09/11 01:35:55;;;;;;;12.52;5.63;;;17.60;99.90;;;17.84;100.00;101070.38;5183911;28;20131;-72
2022/09/11 01:38:35;;;;;;;11.35;5.78;;;17.60;99.90;;;17.84;100.00;101075.66;5183395;28;20050;-73
2022/09/11 01:41:14;;;;;;;12.10;6.07;;;17.60;99.90;;;17.84;100.00;101080.94;5184557;28;20034;-71
2022/09/11 01:43:55;;;;;;;12.63;6.47;;;17.60;99.90;;;17.83;100.00;101082.69;5183216;28;20054;-73
2022/09/11 01:46:29;;;;;;;12.60;6.32;;;17.60;99.90;;;17.81;100.00;101079.16;5182655;28;20541;-71
2022/09/11 01:49:06;;;;;;;13.60;6.32;;;17.60;99.90;;;17.81;100.00;101086.19;5183048;28;20074;-72
2022/09/11 01:51:40;;;;;;;10.00;4.90;;;17.50;99.90;;;17.82;100.00;101085.31;5184308;28;20046;-73
2022/09/11 01:54:17;;;;;;;10.15;5.00;;;17.60;99.90;;;17.82;100.00;101083.56;5183212;28;20415;-73
2022/09/11 01:56:55;;;;;;;10.15;5.18;;;17.60;99.90;;;17.83;100.00;101093.25;5182538;28;20084;-73
2022/09/11 01:59:37;;;;;;;10.13;5.22;;;17.60;99.90;;;17.84;100.00;101091.50;5183103;28;20073;-72
2022/09/11 02:02:14;;;;;;;12.48;6.57;;;17.60;99.90;;;17.83;100.00;101080.06;5183200;28;20489;-72
2022/09/11 02:04:51;;;;;;;11.52;6.00;;;17.60;99.90;;;17.83;100.00;101087.09;5183152;28;20072;-74
2022/09/11 02:07:30;;;;;;;12.80;6.07;;;17.60;99.90;;;17.82;100.00;101087.97;5182486;28;20046;-72
2022/09/11 02:10:09;;;;;;;10.50;5.15;;;17.60;99.90;;;17.81;100.00;101096.75;5182870;28;20046;-72
2022/09/11 02:12:47;;;;;;;9.60;4.90;;;17.60;99.90;;;17.81;100.00;101091.47;5184338;28;20406;-74
2022/09/11 02:15:29;;;;;;;10.35;5.30;;;17.60;99.90;;;17.82;100.00;101102.03;5183145;28;20042;-73
2022/09/11 02:18:08;;;;;;;10.10;5.22;;;17.60;99.90;;;17.85;100.00;101101.16;5182554;28;20398;-72
2022/09/11 02:20:44;;;;;;;9.38;4.78;;;17.60;99.90;;;17.84;100.00;101095.00;5182907;28;20488;-72
2022/09/11 02:23:17;;;;;;;7.60;4.60;;;17.60;99.90;;;17.86;100.00;101097.66;5182657;28;20108;-74
2022/09/11 02:25:49;;;;;;;9.57;4.85;;;17.60;99.90;;;17.86;100.00;101103.81;5183783;28;20045;-72
2022/09/11 02:28:24;;;;;;;11.63;5.57;;;17.60;99.90;;;17.87;100.00;101107.34;5182999;28;20495;-73
2022/09/11 02:30:57;;;;;;;10.05;5.53;;;17.60;99.90;;;17.87;100.00;101099.44;5182837;28;20495;-71
2022/09/11 02:33:33;;;;;;;10.93;5.68;;;17.60;99.90;;;17.83;100.00;101100.28;5182717;28;20139;-72
2022/09/11 02:36:28;;;;;;;10.85;5.05;;;17.60;99.90;;;17.83;100.00;101102.91;5182385;28;20434;-72
2022/09/11 02:39:19;;;;;;;9.55;5.15;;;17.60;99.90;;;17.81;100.00;101102.91;5182644;28;20046;-74
2022/09/11 02:42:12;;;;;;;15.45;6.82;;;17.60;99.90;;;17.80;100.00;101111.69;5182756;28;20041;-72
2022/09/11 02:44:57;;;;;;;12.15;6.13;;;17.60;99.90;;;17.77;100.00;101109.00;5182539;28;20414;-72
2022/09/11 02:47:44;;;;;;;14.45;7.70;;;17.60;99.90;;;17.75;100.00;101109.88;5184203;28;20069;-73
2022/09/11 02:50:29;;;;;;;16.80;8.65;;;17.50;99.90;;;17.70;100.00;101122.06;5186137;28;20081;-72
2022/09/11 02:53:08;;;;;;;14.80;7.03;;;17.50;99.90;;;17.66;100.00;101112.34;5186051;28;20458;-71
2022/09/11 02:55:56;;;;;;;12.82;7.07;;;17.50;99.90;;;17.64;100.00;101115.84;5186110;28;20058;-73
2022/09/11 02:58:34;;;;;;;14.57;7.20;;;17.50;99.90;;;17.64;100.00;101115.84;5186297;28;20399;-72
2022/09/11 03:01:09;;;;;;;18.00;9.20;;;17.40;99.90;;;17.62;100.00;101117.59;5186222;28;20104;-71
2022/09/11 03:03:46;;;;;;;15.60;8.35;;;17.40;99.90;;;17.62;100.00;101122.00;5186167;28;20690;-74
2022/09/11 03:06:21;;;;;;;13.88;7.07;;;17.40;99.90;;;17.65;100.00;101132.56;5185648;28;20053;-72
2022/09/11 03:08:53;;;;;;;18.65;9.43;;;17.40;99.90;;;17.64;100.00;101126.41;5185974;28;20499;-73
2022/09/11 03:11:25;;;;;;;14.35;7.40;;;17.40;99.90;;;17.64;100.00;101126.41;5187269;28;20038;-72
2022/09/11 03:13:58;;;;;;;18.52;8.90;;;17.40;99.90;;;17.66;100.00;101128.16;5185806;28;20403;-72
2022/09/11 03:16:31;;;;;;;15.60;7.65;;;17.40;99.90;;;17.66;100.00;101129.03;5185572;28;20133;-74
2022/09/11 03:19:06;;;;;;;21.50;10.07;;;17.40;99.90;;;17.64;100.00;101125.53;5185726;28;20124;-73
2022/09/11 03:21:38;;;;;;;18.02;9.52;;;17.40;99.90;;;17.62;100.00;101133.41;5185813;28;20049;-71
2022/09/11 03:24:12;;;;;;;23.05;11.13;;;17.40;99.90;;;17.58;100.00;101131.59;5187165;28;20124;-73
2022/09/11 03:26:45;;;;;;;23.75;11.88;;;17.40;99.90;;;17.56;100.00;101122.81;5186676;28;20042;-73
2022/09/11 03:29:17;;;;;;;17.67;9.00;;;17.40;99.90;;;17.58;100.00;101125.44;5185572;28;20558;-71
2022/09/11 03:31:50;;;;;;;24.83;11.60;;;17.40;99.90;;;17.57;100.00;101124.56;5185543;28;20333;-73
2022/09/11 03:34:23;;;;;;;23.45;11.73;;;17.30;99.90;;;17.52;100.00;101123.63;5186839;28;20060;-71
2022/09/11 03:36:56;;;;;;;20.02;10.30;;;17.30;99.90;;;17.50;100.00;101128.00;5185094;28;20838;-73
2022/09/11 03:39:28;;;;;;;20.95;10.23;;;17.30;99.90;;;17.51;100.00;101124.50;5186524;28;20553;-72
2022/09/11 03:42:03;;;;;;;28.08;14.07;;;17.30;99.90;;;17.50;100.00;101128.00;5185220;28;20049;-72
2022/09/11 03:44:36;;;;;;;24.85;12.80;;;17.30;99.90;;;17.49;100.00;101125.34;5185504;28;20042;-72
2022/09/11 03:47:08;;;;;;;22.02;11.85;;;17.30;99.90;;;17.48;100.00;101137.66;5186263;28;20124;-71
2022/09/11 03:49:43;;;;;;;19.33;10.20;;;17.30;99.90;;;17.46;100.00;101131.47;5185212;28;20042;-73
2022/09/11 03:52:16;;;;;;;21.70;11.73;;;17.30;99.90;;;17.47;100.00;101137.59;5185261;28;20282;-72
2022/09/11 03:54:49;;;;;;;20.63;9.55;;;17.20;99.90;;;17.47;100.00;101138.50;5186391;28;20077;-72
2022/09/11 03:57:21;;;;;;;22.88;11.60;;;17.20;99.90;;;17.48;100.00;101135.00;5184711;28;20140;-72
2022/09/11 03:59:55;;;;;;;27.27;13.85;;;17.30;99.90;;;17.48;100.00;101134.13;5185137;28;20498;-71
2022/09/11 04:02:27;;;;;;;28.63;13.35;;;17.30;99.90;;;17.46;100.00;101142.00;5184987;28;20046;-72
2022/09/11 04:05:03;;;;;;;26.02;11.95;;;17.30;99.90;;;17.48;100.00;101140.28;5184888;28;20046;-73
2022/09/11 04:07:37;;;;;;;21.10;11.40;;;17.20;99.90;;;17.48;100.00;101140.28;5185838;28;20041;-73
2022/09/11 04:10:11;;;;;;;21.15;10.18;;;17.30;99.90;;;17.49;100.00;101142.06;5184429;28;20050;-72
2022/09/11 04:12:44;;;;;;;30.70;14.38;;;17.30;99.90;;;17.49;100.00;101144.69;5186039;28;20038;-72
2022/09/11 04:15:16;;;;;;;30.65;12.48;;;17.30;99.90;;;17.49;100.00;101143.81;5184672;28;20045;-73
2022/09/11 04:17:49;;;;;;;29.27;12.88;;;17.30;99.90;;;17.48;100.00;101145.56;5184311;28;20096;-71
2022/09/11 04:20:23;;;;;;;29.60;13.55;;;17.20;99.90;;;17.46;100.00;101144.63;5184367;28;20042;-72
2022/09/11 04:22:55;;;;;;;30.10;13.07;;;17.20;99.90;;;17.42;100.00;101156.03;5184323;28;20104;-71
2022/09/11 04:25:27;;;;;;;26.80;12.05;;;17.20;99.90;;;17.41;100.00;101154.25;5184422;28;20049;-72
2022/09/11 04:28:00;;;;;;;24.42;11.63;;;17.20;99.90;;;17.41;100.00;101145.44;5185466;28;20092;-72
2022/09/11 04:30:37;;;;;;;27.75;12.20;;;17.20;99.90;;;17.42;100.00;101148.13;5185460;28;20088;-72
2022/09/11 04:33:10;;;;;;;29.88;14.15;;;17.20;99.90;;;17.41;100.00;101143.72;5184223;28;20127;-72
2022/09/11 04:35:43;;;;;;;26.23;12.18;;;17.20;99.90;;;17.40;100.00;101163.00;5184108;28;20490;-73
2022/09/11 04:38:17;;;;;;;27.02;12.98;;;17.20;99.90;;;17.42;100.00;101156.03;5184124;28;20073;-72
2022/09/11 04:40:52;;;;;;;24.60;11.80;;;17.20;99.90;;;17.42;100.00;101160.41;5184179;28;20037;-71
2022/09/11 04:43:25;;;;;;;23.70;11.10;;;17.20;99.90;;;17.42;100.00;101156.03;5184059;28;20041;-72
2022/09/11 04:46:01;;;;;;;26.25;11.95;;;17.20;99.90;;;17.41;100.00;101164.81;5184048;28;20313;-73
2022/09/11 04:48:36;;;;;;;24.38;12.70;;;17.20;99.90;;;17.41;100.00;101167.44;5184000;28;20474;-73
2022/09/11 04:51:09;;;;;;;24.95;11.88;;;17.20;99.90;;;17.38;100.00;101167.38;5183924;28;20135;-72
2022/09/11 04:53:42;;;;;;;25.08;11.00;;;17.20;99.90;;;17.37;100.00;101168.25;5183931;28;20068;-71
2022/09/11 04:56:14;;;;;;;23.50;11.45;;;17.20;99.90;;;17.38;100.00;101167.38;5183676;28;20046;-72
2022/09/11 04:58:54;;;;;;;25.13;11.65;;;17.20;99.90;;;17.39;100.00;101171.78;5183950;28;20410;-71
2022/09/11 05:01:32;;;;;;;31.55;13.43;;;17.20;99.90;;;17.39;100.00;101169.13;5183975;28;20045;-73
2022/09/11 05:04:04;;;;;;;21.30;10.60;;;17.20;99.90;;;17.39;100.00;101169.13;5183771;28;20030;-73
2022/09/11 05:06:38;;;;;;;25.83;11.75;;;17.20;99.90;;;17.38;100.00;101175.28;5184965;28;20052;-71
2022/09/11 05:09:17;;;;;;;28.52;13.10;;;17.20;99.90;;;17.37;100.00;101173.53;5183206;28;20399;-71
2022/09/11 05:11:51;;;;;;;25.73;10.98;;;17.20;99.90;;;17.38;100.00;101185.81;5183573;28;20129;-72
2022/09/11 05:14:24;;;;;;;25.38;11.50;;;17.20;99.90;;;17.39;100.00;101179.69;5183541;28;20041;-74
2022/09/11 05:16:57;;;;;;;22.42;9.82;;;17.20;99.90;;;17.40;100.00;101178.81;5182640;28;20069;-72
2022/09/11 05:19:31;;;;;;;25.02;11.23;;;17.20;99.90;;;17.43;100.00;101181.50;5182784;28;20514;-72
2022/09/11 05:22:04;;;;;;;22.75;11.05;;;17.20;99.90;;;17.42;100.00;101179.75;5183588;28;20056;-72
2022/09/11 05:24:39;;;;;;;22.63;10.77;;;17.20;99.90;;;17.42;100.00;101182.38;5183585;28;20048;-72
2022/09/11 05:27:12;;;;;;;22.50;10.88;;;17.20;99.90;;;17.43;100.00;101181.50;5182944;28;20391;-71
2022/09/11 05:29:45;;;;;;;23.55;11.30;;;17.20;99.90;;;17.43;100.00;101189.41;5183608;28;20077;-72
2022/09/11 05:32:19;;;;;;;20.48;9.55;;;17.20;99.90;;;17.45;100.00;101194.69;5183563;28;20045;-74
2022/09/11 05:34:51;;;;;;;22.35;9.60;;;17.20;99.90;;;17.46;100.00;101194.69;5184857;28;20077;-73
2022/09/11 05:37:27;;;;;;;;;;;17.20;99.90;;;17.47;100.00;101199.09;5183451;28;20045;-71
2022/09/11 05:39:59;;;;;;;27.83;11.90;;;17.20;99.90;;;17.47;100.00;101200.84;5184638;28;19953;-73
2022/09/11 05:42:32;;;;;;;29.20;12.48;;;17.20;99.90;;;17.47;100.00;101212.28;5183758;28;20052;-74
2022/09/11 05:45:05;;;;;;;23.20;10.70;;;17.20;99.90;;;17.46;100.00;101215.78;5184798;28;20129;-72
2022/09/11 05:47:38;;;;;;;28.20;11.85;;;17.20;99.90;;;17.45;100.00;101221.94;5183070;28;20038;-72
2022/09/11 05:50:10;;;;;;;28.88;13.15;;;17.20;99.90;;;17.42;100.00;101229.81;5183496;28;20131;-70
2022/09/11 05:52:44;;;;;;;30.75;13.52;;;17.20;99.90;;;17.38;100.00;101222.72;5183391;28;20471;-70
2022/09/11 05:55:16;;;;;;;28.77;12.93;;;17.20;99.90;;;17.35;100.00;101228.84;5183399;28;20515;-72
2022/09/11 05:57:48;;;;;;;23.75;10.63;;;17.10;99.90;;;17.35;100.00;101227.97;5182875;28;20515;-72
2022/09/11 06:00:21;;;;;;;26.70;11.27;;;17.20;99.90;;;17.35;100.00;101230.59;5184202;28;20538;-70
2022/09/11 06:02:57;;;;;;;22.73;10.30;;;17.10;99.90;;;17.36;100.00;101235.00;5184789;28;20086;-71
2022/09/11 06:05:32;;;;;;;23.70;10.55;;;17.20;99.90;;;17.38;100.00;101238.53;5182729;28;20054;-63
2022/09/11 06:08:09;;;;;;;26.20;11.35;;;17.20;99.90;;;17.39;100.00;101239.41;5182618;28;20081;-64
2022/09/11 06:10:46;;;;;;;29.67;11.63;;;17.20;99.90;;;17.39;100.00;101248.19;5182542;28;20058;-64
2022/09/11 06:13:19;;;;;;;24.42;10.20;;;17.20;99.90;;;17.41;100.00;101251.75;5182785;28;20291;-64
2022/09/11 06:15:54;;;;;;;35.50;13.57;;;17.20;99.90;;;17.43;100.00;101255.28;5182634;28;20467;-63
2022/09/11 06:18:27;;;;;;;35.65;13.20;;;17.20;99.90;;;17.45;100.00;101258.81;5183954;28;20056;-64
2022/09/11 06:21:01;;;;;;;32.05;12.10;;;17.30;99.90;;;17.45;100.00;101266.72;5182298;28;20096;-63
2022/09/11 06:23:40;;;;;;;36.25;13.68;;;17.20;99.90;;;17.45;100.00;101266.72;5186087;28;20045;-62
2022/09/11 06:26:16;;;;;;;35.78;13.38;;;17.20;99.90;;;17.46;100.00;101273.78;5187711;28;20046;-64
2022/09/11 06:28:51;;;;;;;36.72;13.45;;;17.30;99.90;;;17.45;100.00;101264.09;5186161;28;20056;-64
2022/09/11 06:31:26;;;;;;;39.47;14.25;;;17.20;99.90;;;17.47;100.00;101270.25;5185936;28;20048;-65
2022/09/11 06:33:59;;;;;;;33.10;13.40;;;17.30;99.90;;;17.47;100.00;101272.91;5186128;28;20053;-63
2022/09/11 06:36:32;;;;;;;37.58;12.85;;;17.30;99.90;;;17.50;100.00;101269.44;5185938;28;20042;-64
2022/09/11 06:39:11;;;;;;;40.22;14.18;;;17.30;99.90;;;17.53;100.00;101270.34;5185915;28;20130;-63
2022/09/11 06:41:44;;;;;;;32.67;12.50;;;17.30;99.90;;;17.56;100.00;101277.44;5185842;28;20096;-64
2022/09/11 06:44:19;;;;;;;45.42;16.30;;;17.30;99.90;;;17.58;100.00;101279.22;5187106;28;20459;-63
2022/09/11 06:46:51;;;;;;;39.72;14.07;;;17.40;99.90;;;17.59;100.00;101286.25;5185947;28;20050;-63
2022/09/11 06:49:24;;;;;;;41.05;14.40;;;17.40;99.90;;;17.63;100.00;101281.94;5185676;28;20522;-66
2022/09/11 06:52:15;;;;;;;48.03;16.45;;;17.40;99.90;;;17.64;100.00;101281.94;5186997;28;20049;-64
2022/09/11 06:54:56;;;;;;;40.00;14.30;;;17.40;99.90;;;17.64;100.00;101289.84;5185694;28;20045;-64
2022/09/11 06:57:29;;;;;;;54.47;18.55;;;17.40;99.90;;;17.64;100.00;101292.47;5185868;28;20049;-65
2022/09/11 07:00:01;;;;;;;60.97;19.85;;;17.40;99.90;;;17.62;100.00;101288.94;5185502;28;20045;-63
2022/09/11 07:02:39;;;;;;;56.55;19.17;;;17.40;99.90;;;17.55;100.00;101292.38;5185743;28;20038;-64
2022/09/11 07:05:12;;;;;;;57.10;18.25;;;17.40;99.90;;;17.54;100.00;101287.97;5185784;28;20057;-61
2022/09/11 07:07:45;;;;;;;52.92;17.48;;;17.30;99.90;;;17.52;100.00;101294.94;5185855;28;20046;-61
2022/09/11 07:10:18;;;;;;;51.22;16.88;;;17.30;99.90;;;17.53;100.00;101291.44;5185372;28;20460;-58
2022/09/11 07:12:56;;;;;;;50.67;16.02;;;17.30;99.90;;;17.55;100.00;101296.75;5185403;28;20038;-60
2022/09/11 07:15:30;;;;;;;53.13;17.42;;;17.30;99.90;;;17.54;100.00;101298.50;5185174;28;20157;-60
2022/09/11 07:18:04;;;;;;;47.03;17.23;;;17.30;99.90;;;17.53;100.00;101288.81;5185401;28;20049;-61
2022/09/11 07:20:40;;;;;;;50.03;16.92;;;17.30;99.90;;;17.53;100.00;101286.16;5185135;28;20056;-60
2022/09/11 07:23:12;;;;;;;46.78;17.30;;;17.30;99.90;;;17.53;100.00;101295.81;5185399;28;20048;-61
2022/09/11 07:25:47;;;;;;;51.70;17.45;;;17.30;99.90;;;17.53;100.00;101301.09;5185019;28;20580;-59
2022/09/11 07:28:20;;;;;;;57.97;19.35;;;17.30;99.90;;;17.48;100.00;101293.16;5185212;28;20566;-59
2022/09/11 07:30:52;;;;;;;58.45;19.05;;;17.30;99.90;;;17.46;100.00;101304.50;5184915;28;20042;-60
2022/09/11 07:33:24;;;;;;;50.20;16.55;;;17.20;99.90;;;17.45;100.00;101303.63;5184300;28;20407;-58
2022/09/11 07:35:59;;;;;;;54.80;20.05;;;17.20;99.90;;;17.46;100.00;101299.25;5185083;28;20140;-58
2022/09/11 07:38:31;;;;;;;57.33;18.92;;;17.20;99.90;;;17.48;100.00;101300.16;5185520;28;20045;-60
2022/09/11 07:41:08;;;;;;;53.88;18.33;;;17.20;99.90;;;17.49;100.00;101304.56;5184766;28;20060;-59
2022/09/11 07:43:44;;;;;;;47.63;15.90;;;17.20;99.90;;;17.53;100.00;101311.66;5184932;28;20042;-59
2022/09/11 07:46:17;;;;;;;44.20;15.23;;;17.20;99.90;;;17.57;100.00;101313.47;5184978;28;20042;-59
2022/09/11 07:48:49;;;;;;;49.35;16.92;;;17.30;99.90;;;17.63;100.00;101303.91;5184862;28;20419;-61
2022/09/11 07:51:21;;;;;;;47.33;15.60;;;17.40;99.90;;;17.68;100.00;101316.28;5184646;28;20096;-60
2022/09/11 07:53:58;;;;;;;38.30;14.02;;;17.40;99.90;;;17.71;100.00;101313.66;5184868;28;20507;-59
2022/09/11 07:56:35;;;;;;;44.05;15.55;;;17.40;99.90;;;17.71;100.00;101321.56;5184621;28;20097;-58
2022/09/11 07:59:09;;;;;;;43.25;15.23;;;17.40;99.90;;;17.66;100.00;101321.50;5184460;28;20495;-60
2022/09/11 08:01:45;;;;;;;43.75;15.18;;;17.40;99.90;;;17.63;100.00;101319.72;5184513;28;20403;-59
2022/09/11 08:04:19;;;;;;;46.38;15.95;;;17.40;99.90;;;17.66;100.00;101325.88;5184352;28;20053;-59
2022/09/11 08:06:52;;;;;;;39.85;14.40;;;17.40;99.90;;;17.68;100.00;101329.47;5184439;28;20052;-58
2022/09/11 08:09:28;;;;;;;42.10;13.63;;;17.40;99.90;;;17.69;100.00;101325.94;5184266;28;20127;-60
2022/09/11 08:12:06;;;;;;;39.80;13.43;;;17.40;99.90;;;17.70;100.00;101330.34;5184051;28;20503;-60
2022/09/11 08:14:41;;;;;;;40.85;13.27;;;17.40;99.90;;;17.72;100.00;101318.97;5184076;28;20427;-59
2022/09/11 08:17:22;;;;;;;34.10;11.93;;;17.40;99.90;;;17.81;100.00;101320.88;5184226;28;20517;-59
2022/09/11 08:19:54;;;;;;;30.60;11.45;;;17.50;99.90;;;17.97;100.00;101329.88;5184067;28;20099;-59
2022/09/11 08:22:27;;;;;;;33.58;10.63;;;17.60;99.90;;;18.10;100.00;101324.78;5183869;28;20054;-59
2022/09/11 08:24:59;;;;;;;29.23;11.80;;;17.70;99.90;;;18.26;100.00;101327.63;5184162;28;20530;-61
2022/09/11 08:27:34;;;;;;;24.35;10.75;;;17.90;99.90;;;18.33;100.00;101334.72;5185584;28;20494;-59
2022/09/11 08:30:09;;;;;;;25.17;10.35;;;17.90;99.90;;;18.40;100.00;101334.81;5183771;28;20046;-59
2022/09/11 08:32:41;;;;;;;29.08;11.93;;;18.00;99.90;;;18.46;100.00;101339.28;5185045;28;20045;-60
2022/09/11 08:35:14;;;;;;;37.30;13.32;;;18.10;99.90;;;18.42;100.00;101345.38;5184022;28;20415;-60
2022/09/11 08:37:47;;;;;;;30.60;11.45;;;18.10;99.90;;;18.35;100.00;101343.53;5183770;28;20042;-61
2022/09/11 08:40:21;;;;;;;25.58;10.65;;;18.00;99.90;;;18.37;100.00;101353.22;5183998;28;20297;-60
2022/09/11 08:42:57;;;;;;;26.77;10.48;;;18.10;99.90;;;18.42;100.00;101361.22;5183726;28;20080;-58
2022/09/11 08:45:34;;;;;;;21.92;9.48;;;18.10;99.90;;;18.45;100.00;101366.53;5182917;28;20073;-59
2022/09/11 08:48:08;;;;;;;24.67;10.57;;;18.10;99.90;;;18.46;100.00;101370.06;5183829;28;20133;-60
2022/09/11 08:50:43;;;;;;;23.25;9.57;;;18.10;99.90;;;18.48;100.00;101363.03;5183744;28;20042;-61
2022/09/11 08:53:19;;;;;;;24.88;8.93;;;18.20;99.90;;;18.49;100.00;101370.97;5183607;28;20483;-62
2022/09/11 08:56:00;;;;;;;23.70;9.40;;;18.20;99.90;;;18.49;100.00;101364.81;5183435;28;20430;-60
2022/09/11 08:58:44;;;;;;;22.55;9.73;;;18.20;99.90;;;18.50;100.00;101374.50;5183332;28;20058;-60
2022/09/11 09:01:26;;;;;;;30.83;12.43;;;18.20;99.90;;;18.47;100.00;101377.13;5183220;28;20080;-58
2022/09/11 09:04:16;;;;;;;23.40;10.07;;;18.20;99.90;;;18.45;100.00;101377.06;5183295;28;20065;-60
2022/09/11 09:07:00;;;;;;;24.98;10.40;;;18.20;99.90;;;18.45;100.00;101382.34;5183288;28;20096;-58
2022/09/11 09:09:42;;;;;;;19.17;8.25;;;18.20;99.90;;;18.47;100.00;101380.66;5184440;28;20052;-60
2022/09/11 09:12:22;;;;;;;21.27;9.00;;;18.20;99.90;;;18.55;100.00;101388.66;5183205;28;20104;-60
2022/09/11 09:15:18;;;;;;;24.70;10.10;;;18.20;99.90;;;18.58;100.00;101388.66;5183044;28;20423;-59
2022/09/11 09:17:58;;;;;;;18.20;7.93;;;18.30;99.90;;;18.58;100.00;101386.03;5184139;28;20052;-61
2022/09/11 09:20:33;;;;;;;18.13;8.38;;;18.30;99.90;;;18.54;100.00;101387.75;5182887;28;20046;-59
2022/09/11 09:23:14;;;;;;;21.50;9.07;;;18.20;99.90;;;18.49;100.00;101386.81;5183203;28;20041;-60
2022/09/11 09:25:48;;;;;;;19.15;8.60;;;18.30;99.90;;;18.42;100.00;101393.78;5183473;28;20104;-59
2022/09/11 09:28:23;;;;;;;23.08;9.88;;;18.20;99.90;;;18.37;100.00;101391.94;5182811;28;20057;-58
2022/09/11 09:31:00;;;;;;;20.15;9.48;;;18.10;99.90;;;18.34;100.00;101397.19;5182882;28;20333;-62
2022/09/11 09:33:35;;;;;;;27.83;11.43;;;18.10;99.90;;;18.34;100.00;101394.56;5182641;28;20046;-61
2022/09/11 09:36:16;;;;;;;23.20;9.57;;;18.10;99.90;;;18.37;100.00;101406.03;5184338;28;20064;-59
2022/09/11 09:38:49;;;;;;;18.25;8.30;;;18.10;99.90;;;18.44;100.00;101404.34;5182661;28;20496;-59
2022/09/11 09:42:19;;;;;;;25.02;10.75;;;18.20;99.90;;;18.49;100.00;101407.06;5182814;28;20510;-60
2022/09/11 09:45:26;;;;;;;19.50;8.75;;;18.20;99.90;;;18.50;100.00;101414.97;5176304;28;20104;-61
2022/09/11 09:48:00;;;;;;;22.88;9.32;;;18.20;99.90;;;18.53;100.00;101417.69;5174955;28;20053;-59
2022/09/11 09:50:34;;;;;;;23.55;9.70;;;18.20;99.90;;;18.53;100.00;101412.41;5182550;28;20085;-59
2022/09/11 09:53:16;;;;;;;17.95;7.78;;;18.30;99.90;;;18.54;100.00;101416.81;5184149;28;20046;-59
2022/09/11 09:55:50;;;;;;;20.20;8.77;;;18.30;99.90;;;18.56;100.00;101412.41;5184885;28;20042;-58
2022/09/11 09:58:25;;;;;;;18.73;8.27;;;18.30;99.90;;;18.54;100.00;101408.88;5187991;28;20053;-59
2022/09/11 10:00:57;;;;;;;18.52;8.18;;;18.30;99.90;;;18.57;100.00;101413.31;5186736;28;20045;-60
2022/09/11 10:03:30;;;;;;;21.52;9.10;;;18.30;99.90;;;18.61;100.00;101409.84;5188040;28;20042;-59
2022/09/11 10:06:03;;;;;;;18.65;8.35;;;18.30;99.90;;;18.67;100.00;101395.00;5187944;28;20058;-60
2022/09/11 10:08:37;;;;;;;16.23;7.70;;;18.40;99.90;;;18.83;100.00;101397.78;5188114;28;20363;-60
2022/09/11 10:11:12;;;;;;;18.70;8.10;;;18.50;99.90;;;19.01;100.00;101397.09;5187963;28;20088;-59
2022/09/11 10:13:53;;;;;;;17.40;7.53;;;18.60;99.90;;;19.20;100.00;101399.91;5188233;28;20125;-59
2022/09/11 10:16:27;;;;;;;17.60;8.23;;;18.70;99.90;;;19.42;100.00;101402.75;5187587;28;20053;-59
2022/09/11 10:19:01;;;;;;;20.05;8.43;;;18.90;99.90;;;19.59;100.00;101403.81;5187652;28;20050;-59
2022/09/11 10:21:34;;;;;;;21.67;9.30;;;19.10;99.90;;;19.75;100.00;101396.84;5187663;28;20062;-60
2022/09/11 10:24:22;;;;;;;21.13;9.73;;;19.20;99.90;;;19.95;100.00;101402.25;5187293;28;20124;-59
2022/09/11 10:26:56;;;;;;;17.73;8.50;;;19.40;99.90;;;20.09;100.00;101399.72;5187517;28;20058;-61
2022/09/11 10:29:30;;;;;;;17.67;8.00;;;19.50;99.90;;;20.25;100.00;101404.19;5187638;28;20525;-59
2022/09/11 10:32:04;;;;;;;17.30;8.35;;;19.60;99.90;;;20.42;100.00;101404.28;5187398;28;20187;-58
2022/09/11 10:34:40;;;;;;;20.50;9.27;;;19.80;99.90;;;20.58;100.00;101406.13;5187510;28;20407;-59